Close Search

Base
°C
Summit
°C

WEATHER AT A GLANCE

Image Slideshow

RMR Village

Revelstoke Mountain Resort -  RMR Village Webcam

Top of The Stoke

Revelstoke Mountain Resort -  Top of The Stoke Webcam

Top of Stellar

Revelstoke Mountain Resort -  Top of Stellar Webcam

Mackenzie Outpost

Revelstoke Mountain Resort -  Mackenzie Outpost Webcam

Ripper

Revelstoke Mountain Resort -  Ripper Webcam
Base
°C
Summit
°C
Wind (Summit)
km/h

Today's Forecast

Subpeak Weather

Time Avg. Air Temp Dew Point Avg. Rel Humidity Avg. 2 Min Wind Speed Max Gust Velocity MGV Time MGV Direction Avg. Spot Wind Velocity
2026-05-08 22:50:000° C-0° C96%16 km/h17 km/h22:49:00W15 km/h
21:50:001° C-1° C89%16 km/h20 km/h21:48:00W17 km/h
20:50:001° C1° C100%9 km/h10 km/h20:49:00NW9 km/h
19:50:001° C2° C100%12 km/h14 km/h19:50:00NW11 km/h
18:50:002° C1° C95%11 km/h18 km/h18:47:00W12 km/h
17:50:002° C2° C98%14 km/h15 km/h17:50:00SW14 km/h
16:50:002° C2° C96%17 km/h19 km/h16:50:00SW15 km/h
15:50:003° C0° C83%15 km/h20 km/h15:48:00W15 km/h
14:50:004° C-0° C77%15 km/h20 km/h14:50:00S15 km/h
13:50:005° C-3° C59%13 km/h15 km/h13:49:00S13 km/h
12:50:005° C-3° C61%13 km/h20 km/h12:48:00SE13 km/h
11:50:004° C-3° C62%20 km/h22 km/h11:50:00S20 km/h
10:50:006° C-4° C52%14 km/h19 km/h10:48:00S15 km/h
09:50:006° C-5° C44%15 km/h17 km/h09:49:00S13 km/h
08:50:005° C-6° C42%13 km/h14 km/h08:50:00S13 km/h
07:50:005° C-7° C42%17 km/h20 km/h07:48:00S17 km/h
06:50:005° C-7° C44%17 km/h17 km/h06:46:00S17 km/h
05:50:005° C-7° C41%17 km/h19 km/h05:46:00W17 km/h
04:50:005° C-7° C45%23 km/h25 km/h04:50:00W22 km/h
03:50:004° C-4° C56%16 km/h19 km/h03:46:00SW17 km/h
02:50:005° C-7° C38%16 km/h18 km/h02:49:00SW16 km/h
01:50:005° C-7° C43%19 km/h23 km/h01:48:00W19 km/h
00:50:005° C-5° C51%13 km/h17 km/h00:49:00SW14 km/h
23:50:005° C-5° C51%18 km/h22 km/h23:49:00SW16 km/h

Time Avg. Air Temp Dew Point Avg. Rel Humidity Avg. 2 Min Wind Speed Max Gust Velocity MGV Time MGV Direction Avg. Spot Wind Velocity
2026-05-08 22:50:000° C-0° C96%16 km/h17 km/h22:49:00W15 km/h
22:45:000° C-1° C99%14 km/h17 km/h22:43:00W15 km/h
22:40:000° C0° C100%8 km/h14 km/h22:37:00W9 km/h
22:35:000° C0° C99%10 km/h14 km/h22:32:00NW10 km/h
22:30:000° C-0° C96%12 km/h18 km/h22:26:00W12 km/h
22:25:000° C-0° C95%14 km/h20 km/h22:22:00W14 km/h
22:20:001° C-0° C94%16 km/h21 km/h22:16:00W17 km/h
22:15:001° C-0° C93%19 km/h22 km/h22:12:00W20 km/h
22:10:001° C-0° C93%20 km/h22 km/h22:07:00W19 km/h
22:05:001° C-0° C92%17 km/h20 km/h22:05:00W15 km/h
22:00:001° C-0° C91%15 km/h19 km/h21:58:00W15 km/h
21:55:001° C-1° C92%18 km/h20 km/h21:53:00W17 km/h
21:50:001° C-1° C89%16 km/h20 km/h21:48:00W17 km/h

We value your privacy
We use cookies to enhance your browsing experience, serve personalized ads or content, and analyze our traffic. By clicking "Allow Cookies", you consent to our use of cookies. For additional details view our Privacy Policy.
Cookie preferences

You can control how your data is used on our website. Learn more below about the cookies we use by reviewing our Privacy Policy.

Your cookie preferences have been saved.